Time;durP1;ratioP1;P1;durP2;ratioP2;P2;SDS_P1;SDS_P2;PMS_P1;PMS_P2;Temp;Humidity;BMP_temperature;BMP_pressure;BME280_temperature;BME280_humidity;BME280_pressure;Samples;Min_cycle;Max_cycle;Signal;HPM_P1;HPM_P2
2022/09/03 00:03:43;;;;;;;1.88;1.40;;;;;;;5.36;89.52;101388.44;10593474;28;20078;-74
2022/09/03 00:08:53;;;;;;;2.55;1.50;;;;;;;5.33;90.28;101389.72;10586716;28;20047;-75
2022/09/03 00:14:10;;;;;;;1.45;1.20;;;;;;;5.30;90.17;101389.34;10562693;28;20059;-75
2022/09/03 00:19:16;;;;;;;1.50;1.40;;;;;;;5.27;90.04;101395.25;10575808;28;20149;-75
2022/09/03 00:24:20;;;;;;;1.92;1.25;;;;;;;5.26;90.09;101401.75;10584193;27;20051;-75
2022/09/03 00:29:26;;;;;;;1.58;1.15;;;;;;;5.24;90.17;101399.25;10593975;28;20043;-75
2022/09/03 00:34:32;;;;;;;5.10;1.50;;;;;;;5.23;89.98;101396.78;10576124;28;20500;-76
2022/09/03 00:39:35;;;;;;;2.28;1.58;;;;;;;5.18;89.84;101393.88;10557696;28;20055;-76
2022/09/03 00:45:02;;;;;;;1.85;1.13;;;;;;;5.13;90.71;101398.13;10574360;28;20551;-76
2022/09/03 00:50:47;;;;;;;2.33;1.35;;;;;;;5.12;90.62;101401.06;10583522;28;20059;-76
2022/09/03 00:56:07;;;;;;;1.45;1.35;;;;;;;5.09;90.69;101396.91;10557057;28;20048;-76
2022/09/03 01:01:48;;;;;;;2.63;1.23;;;;;;;5.13;90.42;101400.84;10564356;28;20082;-74
2022/09/03 01:07:09;;;;;;;2.88;1.30;;;;;;;5.10;90.46;101401.31;10610820;28;20055;-74
2022/09/03 01:12:31;;;;;;;3.00;1.95;;;;;;;5.03;91.06;101405.13;10586121;28;20036;-74
2022/09/03 01:17:50;;;;;;;2.78;1.40;;;;;;;5.03;91.02;101403.28;10589172;28;20517;-74
2022/09/03 01:23:04;;;;;;;2.28;1.20;;;;;;;5.02;90.41;101400.75;10570420;28;20047;-76
2022/09/03 01:28:33;;;;;;;4.18;1.40;;;;;;;5.00;90.75;101395.53;10580136;28;20665;-76
2022/09/03 01:34:01;;;;;;;2.08;1.27;;;;;;;4.98;90.71;101405.00;10575821;28;20043;-76
2022/09/03 01:39:26;;;;;;;2.90;1.13;;;;;;;5.00;91.21;101403.69;10580714;28;20036;-76
2022/09/03 01:44:40;;;;;;;1.40;1.02;;;;;;;5.01;91.76;101401.81;10610059;28;20047;-76
2022/09/03 01:49:56;;;;;;;2.97;1.38;;;;;;;4.95;91.11;101403.56;10601747;28;20043;-73
2022/09/03 01:55:20;;;;;;;3.97;1.27;;;;;;;4.93;91.22;101404.84;10592222;28;20044;-76
2022/09/03 02:00:24;;;;;;;3.55;1.13;;;;;;;4.93;91.30;101397.50;10573171;28;20050;-75
2022/09/03 02:05:26;;;;;;;2.35;1.02;;;;;;;4.93;91.43;101397.50;10605006;28;20073;-76
2022/09/03 02:11:00;;;;;;;2.60;1.33;;;;;;;5.00;91.73;101397.44;10583169;28;20040;-75
2022/09/03 02:16:21;;;;;;;2.25;1.30;;;;;;;4.93;90.93;101400.22;10612945;28;20054;-75
2022/09/03 02:21:52;;;;;;;1.25;1.10;;;;;;;4.83;91.61;101403.44;10572819;28;20040;-76
2022/09/03 02:26:58;;;;;;;1.30;0.98;;;;;;;4.86;91.18;101407.63;10580789;28;20538;-73
2022/09/03 02:32:01;;;;;;;1.75;1.10;;;;;;;4.84;91.65;101407.00;10601955;28;20040;-76
2022/09/03 02:37:12;;;;;;;4.03;1.23;;;;;;;4.79;91.23;101409.56;10576504;28;20044;-75
2022/09/03 02:42:14;;;;;;;2.33;1.23;;;;;;;4.90;91.96;101413.44;10586451;28;20425;-76
2022/09/03 02:47:19;;;;;;;1.25;1.00;;;;;;;5.03;91.19;101402.41;10583875;28;20062;-76
2022/09/03 02:52:21;;;;;;;1.65;1.30;;;;;;;5.20;91.39;101408.91;10609717;28;20089;-75
2022/09/03 02:57:49;;;;;;;1.48;1.17;;;;;;;5.28;91.80;101405.06;10577172;28;20051;-76
2022/09/03 03:02:51;;;;;;;1.77;1.45;;;;;;;5.29;91.91;101401.28;10570707;28;20048;-76
2022/09/03 03:07:55;;;;;;;1.33;1.05;;;;;;;5.32;91.57;101407.09;10587121;28;20079;-74
2022/09/03 03:13:26;;;;;;;2.25;1.13;;;;;;;5.39;91.49;101412.50;10568589;28;20043;-75
2022/09/03 03:18:32;;;;;;;3.20;1.42;;;;;;;5.50;91.55;101413.59;10595281;27;20058;-74
2022/09/03 03:23:35;;;;;;;3.35;1.20;;;;;;;5.51;91.38;101415.25;10583641;28;20723;-75
2022/09/03 03:28:39;;;;;;;2.20;1.30;;;;;;;5.50;91.15;101419.88;10592919;28;20039;-74
2022/09/03 03:33:42;;;;;;;1.70;1.17;;;;;;;5.58;91.14;101414.13;10574944;28;20047;-75
2022/09/03 03:38:48;;;;;;;2.42;1.30;;;;;;;5.91;90.63;101415.59;10574378;28;20502;-74
2022/09/03 03:43:54;;;;;;;2.38;1.35;;;;;;;6.19;91.15;101420.41;10578121;28;20039;-75
2022/09/03 03:49:01;;;;;;;2.33;1.05;;;;;;;6.55;90.53;101422.16;10585292;28;20048;-75
2022/09/03 03:54:07;;;;;;;1.90;1.15;;;;;;;7.06;88.83;101417.88;10561763;28;20040;-75
2022/09/03 03:59:12;;;;;;;3.58;1.50;;;;;;;7.67;86.33;101411.00;10565491;28;20055;-74
2022/09/03 04:04:18;;;;;;;1.40;1.10;;;;;;;7.83;84.67;101407.50;10555021;28;20043;-75
2022/09/03 04:09:21;;;;;;;2.20;1.10;;;;;;;7.84;83.34;101415.44;10585855;28;20032;-74
2022/09/03 04:14:24;;;;;;;3.17;1.35;;;;;;;7.94;82.70;101425.72;10567858;28;20410;-74
2022/09/03 04:19:29;;;;;;;2.70;2.03;;;;;;;8.07;82.59;101433.63;10591229;28;20036;-74
2022/09/03 04:24:31;;;;;;;3.35;1.70;;;;;;;8.20;81.52;101429.78;10579578;28;20059;-74
2022/09/03 04:29:33;;;;;;;3.28;1.40;;;;;;;8.34;80.89;101435.78;10576037;28;20040;-74
2022/09/03 04:34:36;;;;;;;2.35;1.48;;;;;;;8.48;79.82;101436.28;10556287;28;20046;-74
2022/09/03 04:39:38;;;;;;;2.85;1.77;;;;;;;8.57;79.82;101443.00;10566590;28;20051;-74
2022/09/03 04:44:45;;;;;;;3.10;1.70;;;;;;;8.90;78.61;101433.97;10564202;28;20410;-76
2022/09/03 04:49:47;;;;;;;3.17;1.65;;;;;;;9.06;78.28;101431.22;10566241;28;20050;-76
2022/09/03 04:54:50;;;;;;;2.80;1.48;;;;;;;9.12;77.49;101439.47;10566645;28;20051;-76
2022/09/03 04:59:52;;;;;;;4.13;1.48;;;;;;;9.51;76.27;101437.53;10552489;28;20048;-76
2022/09/03 05:04:54;;;;;;;1.50;1.20;;;;;;;9.83;73.97;101440.41;10572278;28;20036;-76
2022/09/03 05:10:03;;;;;;;1.88;1.35;;;;;;;10.44;72.92;101433.69;10570911;28;20051;-76
2022/09/03 05:15:13;;;;;;;2.20;1.10;;;;;;;11.11;69.80;101426.78;10569340;28;20060;-76
2022/09/03 05:20:21;;;;;;;4.43;1.30;;;;;;;11.51;68.37;101437.16;10577563;28;20044;-76
2022/09/03 05:25:23;;;;;;;2.08;1.40;;;;;;;11.86;67.12;101419.16;10583096;28;20054;-77
2022/09/03 05:30:25;;;;;;;2.60;1.75;;;;;;;12.52;65.11;101422.03;10589575;28;20027;-76
2022/09/03 05:35:28;;;;;;;2.90;1.50;;;;;;;13.15;63.72;101423.31;10589825;28;20182;-76
2022/09/03 05:40:30;;;;;;;2.58;1.20;;;;;;;13.61;62.36;101417.69;10573109;28;20044;-74
2022/09/03 05:45:32;;;;;;;2.22;1.30;;;;;;;13.46;62.07;101424.09;10566973;28;20083;-74
2022/09/03 05:50:35;;;;;;;3.70;1.27;;;;;;;13.36;61.43;101423.28;10597399;28;20050;-74
2022/09/03 05:56:05;;;;;;;2.17;1.13;;;;;;;13.01;62.13;101424.97;10579185;28;20047;-74
2022/09/03 06:01:12;;;;;;;2.42;1.50;;;;;;;13.15;62.92;101416.97;10574224;28;20039;-74
2022/09/03 06:06:15;;;;;;;1.50;1.00;;;;;;;12.80;63.32;101415.94;10608863;28;20048;-74
2022/09/03 06:11:17;;;;;;;2.20;1.48;;;;;;;12.35;64.12;101419.53;10598724;28;20062;-73
2022/09/03 06:16:20;;;;;;;3.25;1.10;;;;;;;12.14;64.86;101428.84;10606594;28;20040;-73
2022/09/03 06:21:23;;;;;;;2.67;1.90;;;;;;;12.03;65.35;101422.50;10608495;28;20048;-74
2022/09/03 06:26:29;;;;;;;1.38;1.10;;;;;;;12.13;65.99;101421.69;10595826;28;20059;-74
2022/09/03 06:31:31;;;;;;;1.98;1.27;;;;;;;12.32;65.40;101409.91;10583580;28;20047;-74
2022/09/03 06:36:34;;;;;;;2.13;1.10;;;;;;;13.01;63.96;101408.44;10576649;28;20505;-74
2022/09/03 06:41:36;;;;;;;2.47;1.52;;;;;;;13.27;62.98;101404.56;10583043;28;20118;-74
2022/09/03 06:46:41;;;;;;;1.50;1.10;;;;;;;13.54;62.09;101415.25;10602857;28;20058;-75
2022/09/03 06:51:43;;;;;;;2.67;1.20;;;;;;;13.59;61.69;101411.63;10602383;28;20044;-75
2022/09/03 06:56:45;;;;;;;2.63;1.10;;;;;;;14.04;60.52;101413.31;10572293;28;20425;-75
2022/09/03 07:01:47;;;;;;;1.15;1.00;;;;;;;14.84;58.60;101409.41;10574221;28;20044;-74
2022/09/03 07:06:50;;;;;;;3.17;1.63;;;;;;;14.89;57.96;101410.19;10587047;28;20032;-75
2022/09/03 07:11:52;;;;;;;1.98;1.15;;;;;;;15.21;57.74;101415.09;10573576;28;20039;-75
2022/09/03 07:16:54;;;;;;;3.10;1.40;;;;;;;15.24;57.17;101413.69;10568546;28;20447;-74
2022/09/03 07:21:56;;;;;;;2.15;1.20;;;;;;;14.97;55.34;101406.78;10568955;28;20050;-74
2022/09/03 07:26:59;;;;;;;2.05;0.90;;;;;;;14.28;55.18;101415.38;10569107;28;20417;-75
2022/09/03 07:32:01;;;;;;;2.95;1.10;;;;;;;13.73;55.72;101412.69;10566756;28;20044;-74
2022/09/03 07:37:04;;;;;;;1.88;0.82;;;;;;;13.30;55.62;101419.72;10565347;28;20510;-74
2022/09/03 07:42:07;;;;;;;2.17;0.50;;;;;;;12.87;56.05;101427.50;10566497;28;20047;-75
2022/09/03 07:47:09;;;;;;;0.90;0.70;;;;;;;12.74;56.09;101427.25;10563777;28;20040;-74
2022/09/03 07:52:11;;;;;;;2.00;0.98;;;;;;;12.64;57.13;101436.31;10567492;28;20059;-74
2022/09/03 07:57:14;;;;;;;0.75;0.70;;;;;;;12.77;57.42;101432.19;10565326;28;20044;-74
2022/09/03 08:02:16;;;;;;;0.90;0.60;;;;;;;12.83;56.56;101426.38;10564798;28;20032;-74
2022/09/03 08:07:18;;;;;;;0.90;0.75;;;;;;;12.61;56.48;101426.69;10559317;28;20040;-74
2022/09/03 08:12:20;;;;;;;1.60;1.00;;;;;;;12.28;57.53;101435.47;10566994;28;20036;-74
2022/09/03 08:17:23;;;;;;;2.67;1.20;;;;;;;12.02;58.21;101434.59;10566228;28;20044;-74
2022/09/03 08:22:25;;;;;;;3.53;1.17;;;;;;;11.87;58.22;101440.06;10566509;28;20040;-77
2022/09/03 08:27:28;;;;;;;0.95;0.85;;;;;;;11.94;58.63;101437.88;10558692;28;20043;-75
2022/09/03 08:32:30;;;;;;;2.20;1.10;;;;;;;11.91;58.52;101435.66;10565145;28;20036;-74
2022/09/03 08:37:33;;;;;;;2.47;1.30;;;;;;;12.03;59.61;101439.00;10573704;28;20051;-74
2022/09/03 08:42:53;;;;;;;1.42;1.17;;;;;;;12.08;59.13;101441.75;10574242;28;20249;-74
2022/09/03 08:48:05;;;;;;;4.45;1.45;;;;;;;12.10;59.28;101439.56;10571892;28;20044;-76
2022/09/03 08:53:28;;;;;;;1.83;1.05;;;;;;;12.20;60.08;101438.78;10553866;28;20040;-76
2022/09/03 08:58:32;;;;;;;1.70;1.20;;;;;;;12.19;60.05;101440.69;10570351;28;20067;-81
2022/09/03 09:03:46;;;;;;;1.40;1.00;;;;;;;12.36;59.61;101434.94;10545346;28;20047;-77
2022/09/03 09:09:10;;;;;;;2.58;1.00;;;;;;;12.66;59.64;101436.88;10554986;28;20048;-77
2022/09/03 09:14:12;;;;;;;2.45;1.25;;;;;;;12.61;60.57;101429.44;10575836;28;20032;-75
2022/09/03 09:19:46;;;;;;;1.65;1.33;;;;;;;12.65;60.26;101429.72;10577145;28;20507;-76
2022/09/03 09:24:49;;;;;;;2.35;1.55;;;;;;;12.61;59.52;101436.88;10564832;28;20402;-79
2022/09/03 09:29:52;;;;;;;2.83;1.58;;;;;;;12.62;59.29;101436.59;10572970;28;20066;-77
2022/09/03 09:34:54;;;;;;;2.72;1.42;;;;;;;12.66;59.78;101442.38;10588523;28;20047;-78
2022/09/03 09:39:58;;;;;;;1.90;1.17;;;;;;;12.75;59.89;101449.00;10562404;28;20031;-78
2022/09/03 09:45:08;;;;;;;1.67;1.15;;;;;;;12.55;59.22;101446.25;10567198;28;20051;-76
2022/09/03 09:50:20;;;;;;;2.15;1.33;;;;;;;12.50;59.41;101446.25;10562838;28;20044;-75
2022/09/03 09:55:22;;;;;;;1.85;1.17;;;;;;;12.42;58.82;101438.53;10559869;28;20049;-76
2022/09/03 10:00:25;;;;;;;1.15;0.95;;;;;;;12.38;59.42;101439.06;10570100;28;20063;-76
2022/09/03 10:05:32;;;;;;;1.50;1.23;;;;;;;12.45;59.03;101436.03;10569393;28;20036;-76
2022/09/03 10:10:42;;;;;;;2.25;1.25;;;;;;;12.29;59.16;101439.88;10583326;28;20506;-75
2022/09/03 10:15:49;;;;;;;2.95;1.15;;;;;;;12.26;60.07;101441.25;10570383;28;20414;-75
2022/09/03 10:21:09;;;;;;;2.22;1.30;;;;;;;12.26;59.15;101435.75;10588007;28;20556;-75
2022/09/03 10:26:18;;;;;;;1.42;1.00;;;;;;;12.27;58.29;101434.66;10580155;28;20039;-75
2022/09/03 10:31:23;;;;;;;1.17;0.85;;;;;;;12.32;56.62;101426.41;10579928;28;20041;-75
2022/09/03 10:36:38;;;;;;;1.50;0.70;;;;;;;12.28;56.18;101428.03;10591460;28;20074;-75
2022/09/03 10:41:58;;;;;;;1.73;0.90;;;;;;;12.31;56.45;101441.25;10557976;28;20044;-75
2022/09/03 10:47:12;;;;;;;1.40;0.85;;;;;;;12.33;56.52;101432.75;10557505;28;20051;-77
2022/09/03 10:52:16;;;;;;;2.17;1.10;;;;;;;12.33;55.83;101444.56;10565361;28;20047;-77
2022/09/03 10:57:31;;;;;;;2.63;1.05;;;;;;;12.41;56.54;101428.59;10546101;28;20047;-77
2022/09/03 11:02:42;;;;;;;1.42;0.82;;;;;;;12.44;56.36;101439.06;10561856;28;20040;-77
2022/09/03 11:07:48;;;;;;;1.10;0.80;;;;;;;12.56;55.71;101434.13;10575007;28;20035;-77
2022/09/03 11:13:07;;;;;;;2.42;1.10;;;;;;;12.56;55.25;101443.22;10556342;28;20043;-77
2022/09/03 11:18:21;;;;;;;1.55;1.00;;;;;;;12.53;55.50;101438.25;10566266;28;20036;-87
2022/09/03 11:23:25;;;;;;;1.42;0.98;;;;;;;12.55;55.28;101449.00;10563297;28;20036;-76
2022/09/03 11:29:03;;;;;;;1.80;0.88;;;;;;;12.56;55.06;101447.88;10565811;28;20040;-75
2022/09/03 11:34:15;;;;;;;4.00;1.10;;;;;;;12.65;54.88;101457.25;10558883;28;20044;-75
2022/09/03 11:39:34;;;;;;;0.88;0.70;;;;;;;12.70;53.84;101443.50;10563212;28;20039;-75
2022/09/03 11:44:38;;;;;;;2.50;1.48;;;;;;;12.67;57.32;101433.03;10561555;28;20565;-75
2022/09/03 11:49:46;;;;;;;1.67;1.10;;;;;;;12.68;57.38;101432.75;10563665;28;20044;-76
2022/09/03 11:54:48;;;;;;;1.58;1.00;;;;;;;12.94;55.36;101424.47;10531656;28;20044;-75
2022/09/03 11:59:51;;;;;;;0.80;0.70;;;;;;;12.70;54.17;101421.47;10562552;28;20055;-76
2022/09/03 12:05:04;;;;;;;1.75;1.05;;;;;;;12.63;53.32;101405.19;10543749;28;20044;-76
2022/09/03 12:10:43;;;;;;;1.13;0.68;;;;;;;12.69;53.65;101403.28;10566905;28;20036;-75
2022/09/03 12:16:13;;;;;;;1.08;0.80;;;;;;;12.63;54.22;101415.41;10571835;28;20075;-76
2022/09/03 12:21:16;;;;;;;1.08;0.70;;;;;;;12.46;55.14;101414.84;10563081;28;20048;-77
2022/09/03 12:26:22;;;;;;;1.35;0.98;;;;;;;12.28;56.32;101414.28;10578725;28;20056;-76
2022/09/03 12:31:29;;;;;;;0.73;0.73;;;;;;;12.22;57.60;101426.38;10577382;28;20044;-75
2022/09/03 12:36:43;;;;;;;1.55;0.98;;;;;;;12.09;57.79;101413.16;10575812;28;20059;-76
2022/09/03 12:41:52;;;;;;;3.45;1.55;;;;;;;12.05;58.67;101431.31;10553645;28;20040;-76
2022/09/03 12:47:03;;;;;;;1.52;1.08;;;;;;;11.85;60.34;101431.25;10569540;28;20493;-77
2022/09/03 12:52:18;;;;;;;1.55;1.15;;;;;;;11.72;60.81;101425.13;10573493;28;20032;-76
2022/09/03 12:57:24;;;;;;;2.03;1.13;;;;;;;11.68;60.79;101425.94;10570923;28;20071;-76
2022/09/03 13:02:31;;;;;;;4.15;0.93;;;;;;;11.70;59.68;101418.25;10567775;28;20498;-76
2022/09/03 13:07:38;;;;;;;1.60;1.10;;;;;;;11.75;59.50;101423.75;10554687;28;20035;-77
2022/09/03 13:12:48;;;;;;;1.92;0.95;;;;;;;11.68;58.98;101417.69;10568083;28;20043;-76
2022/09/03 13:18:10;;;;;;;0.60;0.52;;;;;;;11.61;57.86;101420.69;10577223;28;20045;-76
2022/09/03 13:23:35;;;;;;;1.08;0.80;;;;;;;11.63;58.01;101424.00;10574830;28;20047;-76
2022/09/03 13:28:44;;;;;;;2.47;0.70;;;;;;;11.59;58.01;101422.03;10575086;28;20426;-77
2022/09/03 13:33:58;;;;;;;2.13;0.90;;;;;;;11.64;58.54;101422.09;10587087;28;20493;-75
2022/09/03 13:39:09;;;;;;;3.08;0.90;;;;;;;11.68;59.02;101423.19;10590355;27;20532;-76
2022/09/03 13:44:20;;;;;;;0.98;0.73;;;;;;;11.66;59.00;101422.63;10572823;28;20508;-76
2022/09/03 13:55:08;;;;;;;0.98;0.70;;;;;;;11.59;58.25;101416.53;10569921;28;20040;-75
2022/09/03 14:00:13;;;;;;;1.73;0.70;;;;;;;11.55;58.29;101410.75;10566983;28;20464;-77
2022/09/03 14:05:22;;;;;;;1.30;0.80;;;;;;;11.60;57.56;101421.78;10564425;28;20536;-73
2022/09/03 14:10:51;;;;;;;0.80;0.70;;;;;;;11.52;57.98;101419.56;10577948;28;20031;-74
2022/09/03 14:16:29;;;;;;;1.58;0.70;;;;;;;11.45;58.35;101419.81;10570307;28;20048;-76
2022/09/03 14:21:38;;;;;;;0.80;0.80;;;;;;;11.34;59.63;101414.53;10568461;28;20048;-76
2022/09/03 14:26:55;;;;;;;3.38;0.73;;;;;;;11.28;59.98;101421.06;10585227;28;20043;-76
2022/09/03 14:31:57;;;;;;;1.33;0.90;;;;;;;11.24;60.71;101423.53;10568331;28;20592;-75
2022/09/03 14:37:29;;;;;;;1.75;1.08;;;;;;;11.25;60.85;101424.34;10569562;28;20060;-75
2022/09/03 14:43:01;;;;;;;2.05;0.80;;;;;;;11.30;59.92;101413.41;10584082;28;20040;-77
2022/09/03 14:48:28;;;;;;;1.30;0.80;;;;;;;11.38;59.27;101410.13;10573555;28;20052;-75
2022/09/03 14:53:57;;;;;;;0.88;0.52;;;;;;;11.48;58.39;101415.69;10567881;28;20047;-74
2022/09/03 14:59:27;;;;;;;2.55;1.08;;;;;;;11.40;57.97;101421.69;10570440;28;20051;-74
2022/09/03 15:04:54;;;;;;;1.77;1.15;;;;;;;11.32;58.42;101420.28;10573816;28;20048;-74
2022/09/03 15:10:03;;;;;;;1.10;0.80;;;;;;;11.32;58.86;101419.47;10568654;28;20043;-76
2022/09/03 15:15:18;;;;;;;2.80;1.10;;;;;;;11.17;58.70;101412.78;10569278;28;20387;-75
2022/09/03 15:20:49;;;;;;;2.92;0.98;;;;;;;11.11;59.12;101413.03;10560546;28;20036;-75
2022/09/03 15:26:13;;;;;;;3.33;1.35;;;;;;;11.06;59.84;101418.47;10567959;28;20047;-76
2022/09/03 15:31:23;;;;;;;1.38;1.00;;;;;;;10.98;59.92;101410.75;10567928;28;20059;-72
2022/09/03 15:36:32;;;;;;;2.25;0.90;;;;;;;10.92;60.38;101412.63;10563952;28;20386;-72
2022/09/03 15:41:56;;;;;;;1.40;0.60;;;;;;;10.84;60.68;101413.94;10565449;28;20039;-72
2022/09/03 15:47:02;;;;;;;0.65;0.50;;;;;;;10.79;60.62;101424.06;10567006;28;20044;-73
2022/09/03 15:52:09;;;;;;;0.75;0.68;;;;;;;10.70;61.24;101425.63;10568879;28;20047;-75
2022/09/03 15:57:23;;;;;;;1.90;1.10;;;;;;;10.66;61.19;101419.03;10566923;28;20714;-73
2022/09/03 16:02:33;;;;;;;2.78;1.25;;;;;;;10.54;61.16;101425.50;10567667;28;20032;-72
2022/09/03 16:07:35;;;;;;;2.17;1.15;;;;;;;10.48;62.12;101418.34;10565427;28;20035;-71
2022/09/03 16:13:00;;;;;;;1.98;0.90;;;;;;;10.48;62.14;101415.59;10566779;28;20032;-73
2022/09/03 16:18:19;;;;;;;0.70;0.70;;;;;;;10.53;62.88;101415.63;10571271;28;20043;-71
2022/09/03 16:23:37;;;;;;;1.20;0.65;;;;;;;10.52;62.92;101424.94;10574838;28;20032;-71
2022/09/03 16:28:42;;;;;;;0.70;0.60;;;;;;;10.49;63.13;101419.16;10548861;28;20032;-71
2022/09/03 16:34:00;;;;;;;1.77;0.90;;;;;;;10.41;63.63;101416.88;10565600;28;20036;-71
2022/09/03 16:39:07;;;;;;;2.28;0.95;;;;;;;10.35;63.58;101426.16;10564075;28;20047;-73
2022/09/03 16:44:19;;;;;;;1.45;0.75;;;;;;;10.27;64.49;101420.06;10577157;28;20039;-72
2022/09/03 16:49:33;;;;;;;1.70;1.30;;;;;;;10.18;64.76;101421.59;10567509;28;20677;-72
2022/09/03 16:55:07;;;;;;;2.03;1.60;;;;;;;10.13;65.72;101426.22;10587345;28;20047;-74
2022/09/03 17:00:19;;;;;;;1.90;1.17;;;;;;;10.02;65.66;101430.75;10591116;28;20055;-73
2022/09/03 17:05:45;;;;;;;1.40;1.27;;;;;;;9.93;66.14;101435.88;10573502;28;20426;-74
2022/09/03 17:10:54;;;;;;;1.73;1.02;;;;;;;9.78;66.99;101441.19;10553314;28;20055;-75
2022/09/03 17:16:02;;;;;;;2.55;1.30;;;;;;;9.63;66.78;101438.25;10569498;28;20051;-75
2022/09/03 17:21:33;;;;;;;1.52;1.00;;;;;;;9.51;67.02;101443.03;10570708;28;20033;-76
2022/09/03 17:27:09;;;;;;;2.63;1.23;;;;;;;9.38;67.30;101443.44;10556108;28;20048;-74
2022/09/03 17:32:14;;;;;;;3.45;1.25;;;;;;;9.26;67.65;101449.84;10606082;28;20048;-75
2022/09/03 17:37:51;;;;;;;1.38;0.93;;;;;;;9.18;68.08;101447.50;10575491;28;20417;-75
2022/09/03 17:43:04;;;;;;;4.27;1.10;;;;;;;9.09;68.59;101451.78;10571289;28;20047;-75
2022/09/03 17:48:13;;;;;;;1.38;0.80;;;;;;;9.03;69.09;101452.78;10552614;28;21834;-73
2022/09/03 17:53:19;;;;;;;1.27;1.10;;;;;;;8.97;69.01;101451.03;10575268;28;20406;-73
2022/09/03 17:58:48;;;;;;;0.77;0.75;;;;;;;8.91;69.38;101452.88;10561030;28;20056;-72
2022/09/03 18:04:28;;;;;;;1.58;1.08;;;;;;;8.85;70.40;101459.34;10569229;28;20036;-73
2022/09/03 18:09:39;;;;;;;0.70;0.70;;;;;;;8.82;69.73;101456.25;10568045;28;20044;-74
2022/09/03 18:15:12;;;;;;;1.45;1.00;;;;;;;8.79;69.95;101470.44;10570526;28;20040;-73
2022/09/03 20:10:57;;;;;;;1.40;0.90;;;;;;;7.68;78.05;101497.34;10565904;28;20044;-74
2022/09/03 20:16:20;;;;;;;1.13;0.90;;;;;;;7.63;78.54;101505.41;10567338;28;20051;-72
2022/09/03 20:21:31;;;;;;;2.03;0.90;;;;;;;7.60;79.11;101504.00;10566793;28;20044;-73
2022/09/03 20:26:48;;;;;;;1.88;1.00;;;;;;;7.57;79.74;101504.47;10583525;28;20032;-73
2022/09/03 20:32:15;;;;;;;1.58;1.00;;;;;;;7.54;79.92;101500.31;10574876;28;20506;-72
2022/09/03 20:37:40;;;;;;;1.73;1.10;;;;;;;7.53;79.93;101501.41;10575939;28;20056;-72
2022/09/03 20:42:45;;;;;;;1.45;0.82;;;;;;;7.52;80.15;101510.66;10568409;28;20040;-72
2022/09/03 20:47:58;;;;;;;0.60;0.60;;;;;;;7.51;80.76;101506.28;10574726;28;20062;-73
2022/09/03 20:53:23;;;;;;;1.27;0.60;;;;;;;7.51;80.62;101516.38;10581499;28;20043;-73
2022/09/03 20:58:57;;;;;;;0.63;0.60;;;;;;;7.49;80.92;101508.41;10589684;28;20059;-77
2022/09/03 21:04:15;;;;;;;0.80;0.52;;;;;;;7.48;81.85;101504.03;10571455;28;20060;-75
2022/09/03 21:09:26;;;;;;;0.65;0.55;;;;;;;7.47;81.68;101509.72;10555731;28;20032;-75
2022/09/03 21:14:56;;;;;;;0.77;0.70;;;;;;;7.46;81.77;101505.31;10569562;28;20505;-74
2022/09/03 21:20:33;;;;;;;2.60;0.70;;;;;;;7.43;81.72;101506.63;10570426;28;20059;-74
2022/09/03 21:25:41;;;;;;;1.77;0.73;;;;;;;7.38;82.30;101508.41;10581740;28;20042;-76
2022/09/03 21:30:47;;;;;;;3.88;1.10;;;;;;;7.34;82.72;101512.69;10580697;28;20032;-75
2022/09/03 21:35:53;;;;;;;0.77;0.50;;;;;;;7.29;82.87;101515.28;10569490;28;20046;-74
2022/09/03 21:41:16;;;;;;;3.13;0.60;;;;;;;7.22;82.11;101518.97;10568300;28;20524;-74
2022/09/03 21:46:37;;;;;;;1.05;0.90;;;;;;;7.19;82.60;101518.63;10568686;28;20043;-74
2022/09/03 21:51:50;;;;;;;0.73;0.73;;;;;;;7.13;83.38;101516.88;10566940;28;20052;-75
2022/09/03 21:57:04;;;;;;;1.50;0.70;;;;;;;7.07;83.10;101525.97;10565390;28;20040;-75
2022/09/03 22:02:24;;;;;;;1.83;1.00;;;;;;;7.05;83.42;101520.75;10568710;28;20048;-75
2022/09/03 22:07:35;;;;;;;1.35;0.80;;;;;;;7.03;83.77;101532.97;10551760;28;20039;-74
2022/09/03 22:13:02;;;;;;;1.63;0.93;;;;;;;6.96;84.06;101524.91;10568009;28;20036;-74
2022/09/03 22:18:14;;;;;;;3.72;0.93;;;;;;;6.93;83.60;101526.19;10567604;28;20051;-75
2022/09/03 22:23:22;;;;;;;0.85;0.80;;;;;;;6.90;84.11;101525.84;10549161;28;20040;-76
2022/09/03 22:28:40;;;;;;;2.45;0.90;;;;;;;6.84;84.55;101524.88;10546161;28;20516;-76
2022/09/03 22:33:54;;;;;;;1.20;0.90;;;;;;;6.83;84.44;101534.13;10552121;28;20036;-76
2022/09/03 22:39:14;;;;;;;1.00;0.90;;;;;;;6.80;84.70;101525.59;10565921;28;20532;-76
2022/09/03 22:44:31;;;;;;;1.08;0.93;;;;;;;6.79;84.85;101526.66;10569984;28;20038;-76
2022/09/03 22:49:40;;;;;;;1.85;1.00;;;;;;;6.76;85.49;101538.03;10561990;28;20052;-76
2022/09/03 22:55:08;;;;;;;1.50;0.70;;;;;;;6.74;85.14;101545.59;10562702;28;20047;-74
2022/09/03 23:00:10;;;;;;;1.02;0.65;;;;;;;6.72;85.28;101545.03;10548720;28;20067;-76
2022/09/03 23:05:32;;;;;;;1.77;1.15;;;;;;;6.68;86.36;101544.66;10567973;28;20090;-75
2022/09/03 23:10:53;;;;;;;2.17;0.95;;;;;;;6.62;86.00;101543.69;10565594;28;20040;-75
2022/09/03 23:16:04;;;;;;;1.50;0.90;;;;;;;6.59;86.84;101543.31;10561825;28;20044;-75
2022/09/03 23:21:20;;;;;;;3.30;0.88;;;;;;;6.53;87.20;101544.25;10547407;28;20048;-76
2022/09/03 23:26:35;;;;;;;1.35;0.90;;;;;;;6.48;87.19;101546.84;10575911;28;20040;-75
2022/09/03 23:31:38;;;;;;;0.75;0.70;;;;;;;6.44;87.22;101540.22;10591338;28;20048;-76
2022/09/03 23:36:54;;;;;;;1.38;0.90;;;;;;;6.43;87.16;101539.38;10570168;28;20611;-75
2022/09/03 23:42:23;;;;;;;0.70;0.70;;;;;;;6.42;88.20;101543.16;10586197;28;20059;-75
2022/09/03 23:47:47;;;;;;;1.20;0.80;;;;;;;6.41;88.03;101536.03;10566734;28;20028;-76
2022/09/03 23:53:17;;;;;;;0.90;0.80;;;;;;;6.42;88.20;101531.41;10561853;28;20035;-75
2022/09/03 23:58:49;;;;;;;1.45;0.73;;;;;;;6.39;88.04;101534.59;10574486;28;20398;-75
